createdAt,value
2023-05-24T00:00:18.710Z,18.70
2023-05-24T00:03:07.245Z,17.00
2023-05-24T00:05:41.244Z,17.20
2023-05-24T00:08:09.269Z,17.50
2023-05-24T00:10:37.023Z,18.70
2023-05-24T00:13:04.754Z,19.30
2023-05-24T00:15:32.547Z,15.60
2023-05-24T00:18:00.354Z,17.20
2023-05-24T00:20:29.094Z,14.80
2023-05-24T00:22:56.928Z,17.60
2023-05-24T00:25:24.727Z,17.10
2023-05-24T00:27:52.601Z,16.50
2023-05-24T00:30:20.433Z,16.40
2023-05-24T00:32:48.185Z,15.70
2023-05-24T00:35:16.397Z,19.30
2023-05-24T00:37:45.516Z,19.00
2023-05-24T00:40:13.428Z,16.80
2023-05-24T00:42:41.573Z,17.20
2023-05-24T00:45:10.087Z,18.50
2023-05-24T00:47:38.214Z,17.90
2023-05-24T00:50:08.501Z,19.80
2023-05-24T00:52:37.083Z,20.00
2023-05-24T00:55:06.152Z,16.90
2023-05-24T00:57:36.115Z,22.30
2023-05-24T01:00:05.891Z,16.30
2023-05-24T01:02:34.443Z,19.30
2023-05-24T01:05:03.100Z,17.50
2023-05-24T01:07:39.768Z,19.60
2023-05-24T01:10:17.073Z,19.90
2023-05-24T01:13:02.036Z,20.50
2023-05-24T01:16:12.963Z,16.50
2023-05-24T01:18:47.072Z,18.70
2023-05-24T01:21:38.749Z,22.70
2023-05-24T01:24:25.978Z,17.90
2023-05-24T01:27:06.705Z,16.60
2023-05-24T01:29:36.463Z,18.70
2023-05-24T01:32:05.187Z,23.80
2023-05-24T01:34:33.024Z,21.20
2023-05-24T01:37:01.153Z,21.10
2023-05-24T01:39:29.906Z,20.50
2023-05-24T01:42:16.613Z,21.30
2023-05-24T01:45:08.943Z,19.00
2023-05-24T01:47:52.456Z,24.10
2023-05-24T01:50:28.370Z,22.50
2023-05-24T01:53:02.580Z,21.30
2023-05-24T01:55:34.748Z,22.90
2023-05-24T01:58:04.764Z,24.90
2023-05-24T02:00:33.647Z,22.60
2023-05-24T02:03:02.517Z,22.90
2023-05-24T02:05:33.219Z,23.10
2023-05-24T02:08:01.555Z,24.20
2023-05-24T02:10:29.912Z,24.20
2023-05-24T02:12:59.699Z,23.90
2023-05-24T02:15:30.584Z,24.00
2023-05-24T02:17:58.818Z,25.50
2023-05-24T02:20:26.936Z,25.80
2023-05-24T02:22:55.671Z,28.10
2023-05-24T02:25:24.079Z,25.40
2023-05-24T02:27:52.228Z,27.10
2023-05-24T02:30:20.202Z,26.00
2023-05-24T02:32:47.971Z,26.30
2023-05-24T02:35:16.370Z,28.60
2023-05-24T02:37:44.762Z,25.80
2023-05-24T02:40:12.741Z,27.00
2023-05-24T02:42:40.511Z,27.50
2023-05-24T02:45:08.457Z,28.60
2023-05-24T02:47:36.248Z,32.40
2023-05-24T02:50:04.606Z,26.80
2023-05-24T02:52:33.167Z,30.30
2023-05-24T02:55:00.928Z,26.80
2023-05-24T02:57:28.979Z,27.90
2023-05-24T02:59:56.704Z,31.70
2023-05-24T03:02:24.451Z,31.80
2023-05-24T03:04:52.678Z,29.40
2023-05-24T03:07:20.441Z,31.50
2023-05-24T03:09:48.166Z,32.50
2023-05-24T03:12:15.979Z,32.80
2023-05-24T03:14:43.681Z,31.10
2023-05-24T03:17:11.527Z,30.90
2023-05-24T03:19:39.246Z,31.90
2023-05-24T03:22:07.040Z,32.50
2023-05-24T03:24:34.809Z,32.80
2023-05-24T03:27:02.646Z,35.00
2023-05-24T03:29:30.754Z,34.60
2023-05-24T03:31:58.533Z,33.80
2023-05-24T03:34:26.351Z,37.80
2023-05-24T03:36:54.068Z,35.60
2023-05-24T03:39:21.835Z,35.60
2023-05-24T03:41:49.628Z,34.10
2023-05-24T03:44:17.379Z,39.20
2023-05-24T03:46:45.101Z,36.00
2023-05-24T03:49:12.877Z,36.60
2023-05-24T03:51:40.704Z,37.30
2023-05-24T03:54:08.377Z,37.20
2023-05-24T03:56:37.385Z,35.60
2023-05-24T03:59:05.155Z,37.20
2023-05-24T04:01:34.470Z,40.70
2023-05-24T04:04:05.588Z,38.10
2023-05-24T04:06:33.383Z,35.70
2023-05-24T04:09:02.022Z,40.40
2023-05-24T04:11:30.003Z,39.20
2023-05-24T04:14:02.103Z,37.70
2023-05-24T04:16:31.899Z,41.00
2023-05-24T04:19:02.224Z,40.60
2023-05-24T04:21:32.476Z,38.10
2023-05-24T04:24:01.794Z,37.20
2023-05-24T04:26:30.287Z,39.60
2023-05-24T04:28:58.295Z,38.90
2023-05-24T04:31:30.469Z,39.10
2023-05-24T04:33:59.576Z,42.30
2023-05-24T04:36:28.943Z,38.00
2023-05-24T04:39:03.023Z,38.30
2023-05-24T04:41:32.285Z,37.10
2023-05-24T04:44:00.493Z,36.90
2023-05-24T04:46:28.636Z,36.00
2023-05-24T04:48:56.404Z,36.40
2023-05-24T04:51:24.331Z,38.70
2023-05-24T04:53:52.098Z,36.80
2023-05-24T04:56:20.045Z,38.50
2023-05-24T04:58:48.328Z,37.50
2023-05-24T05:01:16.207Z,37.50
2023-05-24T05:03:46.085Z,39.20
2023-05-24T05:06:14.165Z,38.70
2023-05-24T05:08:41.967Z,37.80
2023-05-24T05:11:10.058Z,37.70
2023-05-24T05:13:38.240Z,35.50
2023-05-24T05:16:06.162Z,37.90
2023-05-24T05:18:34.246Z,40.70
2023-05-24T05:21:03.233Z,36.70
2023-05-24T05:23:31.579Z,34.60
2023-05-24T05:25:59.315Z,33.70
2023-05-24T05:28:27.555Z,41.50
2023-05-24T05:30:56.946Z,35.30
2023-05-24T05:33:25.115Z,35.60
2023-05-24T05:35:54.852Z,35.70
2023-05-24T05:38:22.884Z,33.90
2023-05-24T05:40:50.636Z,32.40
2023-05-24T05:43:18.881Z,33.50
2023-05-24T05:45:46.805Z,31.40
2023-05-24T05:48:14.581Z,31.60
2023-05-24T05:50:42.451Z,33.80
2023-05-24T05:53:10.674Z,34.90
2023-05-24T05:55:38.432Z,30.90
2023-05-24T05:58:06.573Z,32.50
2023-05-24T06:00:34.746Z,30.60
2023-05-24T06:03:02.584Z,31.50
2023-05-24T06:05:30.449Z,29.90
2023-05-24T06:07:58.196Z,29.60
2023-05-24T06:10:26.007Z,30.40
2023-05-24T06:12:54.357Z,28.60
2023-05-24T06:15:23.437Z,30.80
2023-05-24T06:17:52.616Z,27.90
2023-05-24T06:20:20.549Z,28.70
2023-05-24T06:22:51.017Z,28.30
2023-05-24T06:25:20.959Z,31.10
2023-05-24T06:27:49.412Z,30.70
2023-05-24T06:30:18.116Z,29.00
2023-05-24T06:32:46.081Z,29.40
2023-05-24T06:35:14.308Z,26.20
2023-05-24T06:37:42.072Z,27.50
2023-05-24T06:40:10.207Z,29.90
2023-05-24T06:42:39.873Z,27.00
2023-05-24T06:45:09.489Z,24.00
2023-05-24T06:47:37.371Z,23.90
2023-05-24T06:50:05.868Z,23.80
2023-05-24T06:52:33.602Z,25.00
2023-05-24T06:55:01.471Z,24.90
2023-05-24T06:57:29.728Z,24.90
2023-05-24T06:59:57.513Z,24.90
2023-05-24T07:02:27.783Z,26.60
2023-05-24T07:04:55.752Z,24.90
2023-05-24T07:07:23.764Z,25.40
2023-05-24T07:09:51.961Z,25.40
2023-05-24T07:12:20.283Z,22.90
2023-05-24T07:14:48.004Z,24.80
2023-05-24T07:17:16.193Z,22.80
2023-05-24T07:19:44.069Z,23.30
2023-05-24T07:22:12.782Z,25.10
2023-05-24T07:24:41.235Z,25.50
2023-05-24T07:27:10.095Z,25.40
2023-05-24T07:29:37.893Z,25.00
2023-05-24T07:32:06.844Z,25.10
2023-05-24T07:34:34.713Z,28.30
2023-05-24T07:37:03.029Z,26.60
2023-05-24T07:39:31.328Z,25.10
2023-05-24T07:41:59.149Z,28.70
2023-05-24T07:44:27.196Z,27.70
2023-05-24T07:46:55.841Z,30.00
2023-05-24T07:49:24.284Z,26.60
2023-05-24T07:51:53.229Z,27.20
2023-05-24T07:54:21.574Z,28.10
2023-05-24T07:56:49.362Z,28.40
2023-05-24T07:59:17.199Z,28.00
2023-05-24T08:01:45.070Z,31.00
2023-05-24T08:04:12.808Z,31.40
2023-05-24T08:06:41.881Z,29.60
2023-05-24T08:09:10.322Z,32.60
2023-05-24T08:11:38.121Z,30.20
2023-05-24T08:14:05.920Z,28.90
2023-05-24T08:16:33.667Z,32.50
2023-05-24T08:19:01.439Z,32.00
2023-05-24T08:21:29.681Z,30.60
2023-05-24T08:23:58.029Z,29.50
2023-05-24T08:26:26.200Z,30.40
2023-05-24T08:28:54.978Z,30.20
2023-05-24T08:31:22.866Z,27.90
2023-05-24T08:33:51.465Z,28.10
2023-05-24T08:36:19.828Z,25.40
2023-05-24T08:38:48.001Z,26.40
2023-05-24T08:41:16.041Z,26.10
2023-05-24T08:43:44.481Z,28.50
2023-05-24T08:46:12.847Z,27.70
2023-05-24T08:48:48.361Z,25.60
2023-05-24T08:51:17.961Z,25.50
2023-05-24T08:53:49.206Z,27.40
2023-05-24T08:56:18.624Z,26.00
2023-05-24T08:58:47.381Z,27.80
2023-05-24T09:01:17.282Z,26.80
2023-05-24T09:03:47.306Z,29.80
2023-05-24T09:06:19.752Z,24.60
2023-05-24T09:08:52.560Z,24.70
2023-05-24T09:11:23.064Z,24.60
2023-05-24T09:13:51.486Z,26.60
2023-05-24T09:16:19.436Z,24.50
2023-05-24T09:18:47.903Z,27.50
2023-05-24T09:21:16.235Z,25.90
2023-05-24T09:23:45.574Z,23.00
2023-05-24T09:26:13.373Z,27.30
2023-05-24T09:28:42.236Z,27.30
2023-05-24T09:31:10.157Z,23.50
2023-05-24T09:33:39.770Z,25.60
2023-05-24T09:36:08.539Z,21.90
2023-05-24T09:38:36.981Z,24.60
2023-05-24T09:41:07.357Z,22.40
2023-05-24T09:43:47.083Z,25.90
2023-05-24T09:46:23.119Z,26.00
2023-05-24T09:49:03.794Z,26.90
2023-05-24T09:51:32.563Z,23.90
2023-05-24T09:54:03.649Z,25.20
2023-05-24T09:56:34.274Z,29.00
2023-05-24T09:59:08.940Z,27.80
2023-05-24T10:01:37.483Z,28.10
2023-05-24T10:04:10.225Z,29.70
2023-05-24T10:06:40.041Z,29.40
2023-05-24T10:09:09.905Z,26.30
2023-05-24T10:11:37.758Z,28.10
2023-05-24T10:14:09.354Z,29.80
2023-05-24T10:16:40.495Z,28.80
2023-05-24T10:19:08.307Z,27.40
2023-05-24T10:21:40.203Z,27.50
2023-05-24T10:24:11.262Z,28.30
2023-05-24T10:26:40.072Z,26.80
2023-05-24T10:29:16.222Z,29.20
2023-05-24T10:31:46.749Z,28.10
2023-05-24T10:34:15.731Z,30.80
2023-05-24T10:36:45.109Z,26.40
2023-05-24T10:39:32.023Z,28.40
2023-05-24T10:42:03.206Z,29.60
2023-05-24T10:44:32.084Z,28.80
2023-05-24T10:47:20.726Z,28.40
2023-05-24T10:49:53.299Z,31.20
2023-05-24T10:52:21.451Z,30.10
2023-05-24T10:55:10.544Z,29.90
2023-05-24T10:57:40.165Z,28.50
2023-05-24T11:00:30.785Z,29.40
2023-05-24T11:03:14.365Z,30.80
2023-05-24T11:05:49.982Z,28.60
2023-05-24T11:08:44.548Z,27.60
2023-05-24T11:11:23.970Z,30.00
2023-05-24T11:13:58.155Z,27.70
2023-05-24T11:16:39.415Z,27.90
2023-05-24T11:19:24.558Z,29.90
2023-05-24T11:21:53.933Z,32.40
2023-05-24T11:24:22.441Z,29.50
2023-05-24T11:26:55.039Z,30.40
2023-05-24T11:29:23.338Z,29.50
2023-05-24T11:31:57.906Z,30.30
2023-05-24T11:34:27.562Z,30.80
2023-05-24T11:36:56.625Z,32.60
2023-05-24T11:39:25.790Z,27.50
2023-05-24T11:41:54.419Z,31.10
2023-05-24T11:44:22.317Z,29.10
2023-05-24T11:46:50.090Z,30.20
2023-05-24T11:49:18.037Z,30.70
2023-05-24T11:51:46.912Z,27.50
2023-05-24T11:54:14.678Z,30.60
2023-05-24T11:56:42.790Z,29.80
2023-05-24T11:59:28.095Z,31.20
2023-05-24T12:02:01.058Z,30.70
2023-05-24T12:04:29.811Z,28.30
2023-05-24T12:06:58.202Z,28.40
2023-05-24T12:09:27.107Z,28.80
2023-05-24T12:11:55.830Z,28.20
2023-05-24T12:14:28.041Z,26.70
2023-05-24T12:16:57.388Z,26.80
2023-05-24T12:19:33.897Z,30.00
2023-05-24T12:22:06.126Z,27.20
2023-05-24T12:24:34.734Z,27.30
2023-05-24T12:27:07.584Z,29.00
2023-05-24T12:29:40.985Z,24.50
2023-05-24T12:32:13.991Z,27.10
2023-05-24T12:34:44.500Z,25.20
2023-05-24T12:37:13.652Z,24.60
2023-05-24T12:39:43.965Z,24.10
2023-05-24T12:42:13.543Z,24.20
2023-05-24T12:44:42.554Z,26.10
2023-05-24T12:47:10.630Z,24.50
2023-05-24T12:49:39.422Z,23.90
2023-05-24T12:52:07.252Z,22.20
2023-05-24T12:54:35.224Z,24.80
2023-05-24T12:57:03.688Z,23.30
2023-05-24T12:59:31.584Z,23.00
2023-05-24T13:02:11.986Z,25.00
2023-05-24T13:04:40.545Z,22.90
2023-05-24T13:07:08.348Z,23.60
2023-05-24T13:09:36.225Z,21.70
2023-05-24T13:12:05.134Z,26.20
2023-05-24T13:14:32.880Z,24.20
2023-05-24T13:17:01.237Z,24.70
2023-05-24T13:19:29.665Z,26.50
2023-05-24T13:21:57.602Z,22.30
2023-05-24T13:24:25.401Z,22.10
2023-05-24T13:26:54.817Z,21.50
2023-05-24T13:29:36.768Z,22.10
2023-05-24T13:32:11.043Z,22.80
2023-05-24T13:34:39.547Z,23.40
2023-05-24T13:37:07.932Z,20.00
2023-05-24T13:39:36.949Z,23.70
2023-05-24T13:42:05.268Z,21.20
2023-05-24T13:44:33.017Z,20.70
2023-05-24T13:47:02.561Z,21.90
2023-05-24T13:49:31.002Z,21.60
2023-05-24T13:51:59.013Z,21.20
2023-05-24T13:54:27.544Z,19.90
2023-05-24T13:56:57.708Z,23.10
2023-05-24T13:59:25.914Z,20.30
2023-05-24T14:01:54.423Z,19.80
2023-05-24T14:04:22.638Z,21.30
2023-05-24T14:06:50.558Z,27.30
2023-05-24T14:09:18.457Z,21.30
2023-05-24T14:11:46.197Z,21.00
2023-05-24T14:16:48.569Z,22.30
2023-05-24T14:19:17.299Z,18.70
2023-05-24T14:21:45.182Z,20.30
2023-05-24T14:24:12.943Z,21.30
2023-05-24T14:26:42.134Z,20.50
2023-05-24T14:29:10.078Z,20.80
2023-05-24T14:31:42.475Z,22.50
2023-05-24T14:34:11.322Z,23.00
2023-05-24T14:36:40.496Z,21.60
2023-05-24T14:39:08.913Z,21.40
2023-05-24T14:41:36.691Z,22.30
2023-05-24T14:44:04.934Z,22.90
2023-05-24T14:46:32.886Z,22.70
2023-05-24T14:49:02.670Z,21.60
2023-05-24T14:51:30.443Z,21.50
2023-05-24T14:53:58.391Z,23.40
2023-05-24T14:56:27.520Z,23.60
2023-05-24T14:58:55.406Z,23.90
2023-05-24T15:01:23.418Z,23.40
2023-05-24T15:03:51.848Z,23.60
2023-05-24T15:06:19.990Z,25.40
2023-05-24T15:08:47.920Z,23.70
2023-05-24T15:11:17.654Z,26.00
2023-05-24T15:13:45.382Z,22.20
2023-05-24T15:16:13.115Z,24.90
2023-05-24T15:18:41.293Z,24.00
2023-05-24T15:21:09.315Z,24.90
2023-05-24T15:23:37.064Z,22.20
2023-05-24T15:26:05.796Z,25.00
2023-05-24T15:28:33.654Z,22.20
2023-05-24T15:31:03.809Z,26.70
2023-05-24T15:33:32.913Z,22.50
2023-05-24T15:36:00.858Z,26.60
2023-05-24T15:38:28.641Z,23.60
2023-05-24T15:40:56.938Z,23.70
2023-05-24T15:43:24.710Z,27.10
2023-05-24T15:45:53.717Z,23.90
2023-05-24T15:48:22.782Z,22.30
2023-05-24T15:51:09.381Z,24.10
2023-05-24T15:53:38.464Z,21.70
2023-05-24T15:56:06.771Z,23.70
2023-05-24T15:58:35.071Z,24.00
2023-05-24T16:01:02.931Z,22.00
2023-05-24T16:03:31.252Z,24.70
2023-05-24T16:05:59.018Z,24.70
2023-05-24T16:08:28.632Z,23.40
2023-05-24T16:10:57.384Z,22.90
2023-05-24T16:13:25.921Z,26.00
2023-05-24T16:15:53.757Z,25.60
2023-05-24T16:18:23.111Z,22.00
2023-05-24T16:20:51.872Z,22.10
2023-05-24T16:23:23.149Z,23.60
2023-05-24T16:25:51.663Z,24.20
2023-05-24T16:28:24.763Z,23.10
2023-05-24T16:30:56.150Z,21.10
2023-05-24T16:33:25.322Z,23.30
2023-05-24T16:35:55.892Z,23.10
2023-05-24T16:38:25.703Z,35.40
2023-05-24T16:40:54.248Z,27.50
2023-05-24T16:43:22.765Z,28.50
2023-05-24T16:45:51.501Z,23.80
2023-05-24T16:48:21.856Z,22.70
2023-05-24T16:50:51.687Z,23.60
2023-05-24T16:53:23.025Z,21.70
2023-05-24T16:55:54.112Z,23.20
2023-05-24T16:58:23.777Z,24.10
2023-05-24T17:00:54.462Z,24.40
2023-05-24T17:03:28.868Z,22.60
2023-05-24T17:06:03.263Z,23.30
2023-05-24T17:08:36.487Z,24.70
2023-05-24T17:11:06.420Z,23.00
2023-05-24T17:13:34.812Z,25.30
2023-05-24T17:16:04.759Z,25.20
2023-05-24T17:18:32.579Z,23.60
2023-05-24T17:21:02.249Z,28.90
2023-05-24T17:23:32.105Z,22.40
2023-05-24T17:26:02.726Z,24.50
2023-05-24T17:28:30.772Z,27.10
2023-05-24T17:31:00.557Z,23.60
2023-05-24T17:33:30.681Z,24.80
2023-05-24T17:36:03.045Z,25.30
2023-05-24T17:38:33.235Z,26.40
2023-05-24T17:41:01.658Z,25.20
2023-05-24T17:43:32.900Z,24.90
2023-05-24T17:46:04.159Z,23.80
2023-05-24T17:48:34.251Z,26.80
2023-05-24T17:51:10.051Z,25.60
2023-05-24T17:53:38.629Z,25.90
2023-05-24T17:56:07.480Z,25.40
2023-05-24T17:58:38.030Z,24.40
2023-05-24T18:01:07.739Z,24.20
2023-05-24T18:03:37.510Z,24.50
2023-05-24T18:06:07.684Z,25.40
2023-05-24T18:08:38.374Z,25.40
2023-05-24T18:11:11.157Z,24.10
2023-05-24T18:13:40.571Z,25.40
2023-05-24T18:16:11.150Z,28.90
2023-05-24T18:18:39.391Z,25.40
2023-05-24T18:21:09.768Z,26.10
2023-05-24T18:23:38.326Z,24.20
2023-05-24T18:26:11.565Z,24.70
2023-05-24T18:28:41.479Z,29.70
2023-05-24T18:31:14.915Z,29.30
2023-05-24T18:33:43.740Z,25.90
2023-05-24T18:36:12.838Z,26.90
2023-05-24T18:38:41.581Z,27.80
2023-05-24T18:41:10.203Z,26.60
2023-05-24T18:43:38.113Z,28.70
2023-05-24T18:46:06.815Z,27.70
2023-05-24T18:48:34.686Z,30.80
2023-05-24T18:51:02.988Z,28.40
2023-05-24T18:53:30.725Z,29.50
2023-05-24T18:55:58.438Z,33.10
2023-05-24T18:58:26.186Z,35.40
2023-05-24T19:00:54.641Z,45.00
2023-05-24T19:03:23.203Z,36.80
2023-05-24T19:05:50.964Z,27.80
2023-05-24T19:08:18.801Z,27.10
2023-05-24T19:10:46.666Z,27.50
2023-05-24T19:13:14.845Z,27.80
2023-05-24T19:15:43.512Z,27.10
2023-05-24T19:18:11.855Z,26.70
2023-05-24T19:20:39.684Z,28.90
2023-05-24T19:23:07.632Z,27.60
2023-05-24T19:25:42.023Z,28.50
2023-05-24T19:28:11.560Z,27.50
2023-05-24T19:30:39.737Z,26.90
2023-05-24T19:33:08.022Z,27.00
2023-05-24T19:35:36.992Z,28.80
2023-05-24T19:38:04.766Z,26.50
2023-05-24T19:40:32.526Z,27.10
2023-05-24T19:43:00.352Z,27.10
2023-05-24T19:45:28.682Z,26.20
2023-05-24T19:47:57.054Z,26.30
2023-05-24T19:50:27.500Z,27.10
2023-05-24T19:52:56.528Z,26.60
2023-05-24T19:55:24.240Z,26.90
2023-05-24T19:57:51.959Z,29.00
2023-05-24T20:00:20.452Z,26.30
2023-05-24T20:02:48.738Z,28.10
2023-05-24T20:05:17.469Z,26.30
2023-05-24T20:07:45.493Z,27.30
2023-05-24T20:10:13.321Z,27.20
2023-05-24T20:12:42.792Z,25.80
2023-05-24T20:15:11.644Z,24.80
2023-05-24T20:17:39.902Z,25.70
2023-05-24T20:20:08.374Z,25.30
2023-05-24T20:22:36.132Z,25.60
2023-05-24T20:25:04.116Z,24.60
2023-05-24T20:27:31.862Z,26.20
2023-05-24T20:30:00.162Z,30.90
2023-05-24T20:32:28.499Z,24.70
2023-05-24T20:34:56.321Z,27.30
2023-05-24T20:37:24.110Z,25.20
2023-05-24T20:39:51.911Z,27.70
2023-05-24T20:42:19.773Z,26.80
2023-05-24T20:44:48.185Z,24.40
2023-05-24T20:47:18.530Z,26.40
2023-05-24T20:49:46.433Z,26.90
2023-05-24T20:52:14.478Z,26.60
2023-05-24T20:54:42.984Z,27.20
2023-05-24T20:57:10.944Z,25.00
2023-05-24T20:59:39.171Z,30.40
2023-05-24T21:02:07.514Z,27.40
2023-05-24T21:04:35.329Z,29.00
2023-05-24T21:07:03.138Z,26.50
2023-05-24T21:09:30.904Z,26.50
2023-05-24T21:11:59.419Z,26.80
2023-05-24T21:14:27.753Z,25.40
2023-05-24T21:16:55.600Z,27.30
2023-05-24T21:19:23.425Z,31.20
2023-05-24T21:21:51.248Z,27.70
2023-05-24T21:24:19.113Z,28.90
2023-05-24T21:26:47.411Z,27.20
2023-05-24T21:29:15.768Z,27.00
2023-05-24T21:31:43.569Z,27.00
2023-05-24T21:34:11.373Z,30.00
2023-05-24T21:36:39.094Z,29.00
2023-05-24T21:39:08.468Z,29.00
2023-05-24T21:41:38.442Z,29.40
2023-05-24T21:44:08.240Z,28.40
2023-05-24T21:46:36.603Z,29.10
2023-05-24T21:49:04.524Z,28.00
2023-05-24T21:51:32.251Z,31.70
2023-05-24T21:54:00.438Z,27.60
2023-05-24T21:56:28.697Z,29.50
2023-05-24T21:58:57.062Z,29.50
2023-05-24T22:01:24.853Z,31.60
2023-05-24T22:03:52.596Z,29.20
2023-05-24T22:06:20.726Z,31.00
2023-05-24T22:08:48.492Z,31.20
2023-05-24T22:11:16.515Z,31.60
2023-05-24T22:13:44.286Z,29.30
2023-05-24T22:16:12.038Z,32.50
2023-05-24T22:18:40.020Z,33.00
2023-05-24T22:21:07.813Z,30.80
2023-05-24T22:23:35.965Z,32.70
2023-05-24T22:26:03.784Z,33.10
2023-05-24T22:28:50.827Z,32.20
2023-05-24T22:31:20.027Z,33.50
2023-05-24T22:33:50.938Z,32.60
2023-05-24T22:36:18.920Z,32.90
2023-05-24T22:38:47.123Z,33.90
2023-05-24T22:41:14.839Z,37.30
2023-05-24T22:43:42.547Z,37.40
2023-05-24T22:46:10.868Z,37.20
2023-05-24T22:48:40.671Z,34.70
2023-05-24T22:51:09.336Z,36.00
2023-05-24T22:53:39.249Z,32.00
2023-05-24T22:56:10.484Z,36.40
2023-05-24T22:58:38.490Z,38.70
2023-05-24T23:01:06.306Z,39.90
2023-05-24T23:03:34.450Z,37.40
2023-05-24T23:06:04.542Z,38.10
2023-05-24T23:08:33.318Z,40.10
2023-05-24T23:11:01.399Z,37.90
2023-05-24T23:13:33.420Z,38.80
2023-05-24T23:16:01.368Z,42.10
2023-05-24T23:18:29.398Z,38.70
2023-05-24T23:20:57.174Z,40.10
2023-05-24T23:23:25.929Z,43.30
2023-05-24T23:25:53.686Z,38.10
2023-05-24T23:28:21.907Z,44.60
2023-05-24T23:30:49.714Z,43.20
2023-05-24T23:33:17.552Z,38.80
2023-05-24T23:35:45.695Z,42.50
2023-05-24T23:38:14.840Z,40.10
2023-05-24T23:40:42.788Z,41.30
2023-05-24T23:43:11.070Z,39.70
2023-05-24T23:45:38.847Z,39.40
2023-05-24T23:48:06.828Z,39.90
2023-05-24T23:50:46.369Z,37.80
2023-05-24T23:53:21.617Z,42.70
2023-05-24T23:55:49.852Z,38.10
2023-05-24T23:58:17.742Z,41.10
